Time;durP1;ratioP1;P1;durP2;ratioP2;P2;SDS_P1;SDS_P2;PMS_P1;PMS_P2;Temp;Humidity;BMP_temperature;BMP_pressure;BME280_temperature;BME280_humidity;BME280_pressure;Samples;Min_cycle;Max_cycle;Signal;HPM_P1;HPM_P2
2021/11/13 00:00:09;;;;;;;34.80;24.48;;;8.90;99.90;;;;;;5012120;28;20049;-60
2021/11/13 00:02:34;;;;;;;35.88;23.92;;;9.00;99.90;;;;;;4994497;28;20026;-60
2021/11/13 00:05:00;;;;;;;34.10;23.95;;;8.90;99.90;;;;;;5012468;28;20032;-60
2021/11/13 00:07:26;;;;;;;35.20;23.02;;;9.00;99.90;;;;;;5011887;28;20050;-60
2021/11/13 00:09:51;;;;;;;37.40;24.48;;;9.00;99.90;;;;;;5012296;28;20022;-60
2021/11/13 00:12:34;;;;;;;36.22;24.42;;;9.00;99.90;;;;;;5011874;28;20034;-60
2021/11/13 00:15:00;;;;;;;36.50;24.85;;;9.00;99.90;;;;;;4993542;28;20030;-60
2021/11/13 00:17:27;;;;;;;37.08;25.05;;;9.00;99.90;;;;;;4993637;28;20401;-60
2021/11/13 00:19:52;;;;;;;37.25;24.25;;;9.00;99.90;;;;;;5005583;28;20053;-60
2021/11/13 00:22:18;;;;;;;34.88;25.25;;;9.00;99.90;;;;;;5012009;28;20064;-60
2021/11/13 00:24:43;;;;;;;35.60;24.95;;;9.00;99.90;;;;;;4994068;28;20026;-60
2021/11/13 00:27:09;;;;;;;35.30;24.77;;;9.00;99.90;;;;;;4994236;28;20022;-60
2021/11/13 00:29:35;;;;;;;37.60;25.95;;;9.00;99.90;;;;;;5011944;28;20052;-60
2021/11/13 00:32:04;;;;;;;38.55;25.85;;;9.00;99.90;;;;;;5011840;28;20022;-60
2021/11/13 00:34:30;;;;;;;38.37;24.23;;;9.00;99.90;;;;;;4994123;28;20034;-60
2021/11/13 00:36:56;;;;;;;35.42;24.95;;;9.00;99.90;;;;;;5011752;28;20083;-60
2021/11/13 00:39:22;;;;;;;36.83;24.60;;;9.00;99.90;;;;;;5011687;28;20037;-60
2021/11/13 00:41:47;;;;;;;38.35;24.52;;;9.00;99.90;;;;;;5010944;28;20034;-60
2021/11/13 00:44:13;;;;;;;35.00;24.60;;;9.00;99.90;;;;;;5011680;28;20022;-60
2021/11/13 00:46:39;;;;;;;35.38;24.75;;;9.10;99.90;;;;;;4993959;28;20034;-60
2021/11/13 00:49:30;;;;;;;35.70;23.83;;;9.10;99.90;;;;;;4993787;28;20482;-60
2021/11/13 00:51:56;;;;;;;33.20;22.73;;;9.10;99.90;;;;;;5010263;28;20432;-60
2021/11/13 00:54:21;;;;;;;33.25;23.60;;;9.10;99.90;;;;;;5011616;28;21564;-60
2021/11/13 00:56:47;;;;;;;35.53;23.13;;;9.10;99.90;;;;;;5011292;28;20033;-60
2021/11/13 00:59:14;;;;;;;34.03;21.92;;;9.20;99.90;;;;;;5011378;28;20022;-60
2021/11/13 01:01:40;;;;;;;29.45;20.73;;;9.20;99.90;;;;;;5011278;28;20038;-60
2021/11/13 01:04:06;;;;;;;32.67;22.40;;;9.20;99.90;;;;;;5010998;28;20022;-60
2021/11/13 01:06:32;;;;;;;30.55;21.55;;;9.20;99.90;;;;;;5011211;28;20046;-60
2021/11/13 01:08:57;;;;;;;31.40;22.02;;;9.20;99.90;;;;;;4993546;28;20053;-60
2021/11/13 01:11:23;;;;;;;30.38;20.92;;;9.20;99.90;;;;;;5010952;28;20390;-60
2021/11/13 01:13:48;;;;;;;33.65;21.58;;;9.30;99.90;;;;;;5011362;28;20026;-60
2021/11/13 01:16:15;;;;;;;30.92;21.73;;;9.30;99.90;;;;;;5011346;28;20474;-60
2021/11/13 01:18:41;;;;;;;29.45;20.23;;;9.30;99.90;;;;;;4991189;28;20026;-60
2021/11/13 01:21:07;;;;;;;31.40;22.27;;;9.30;99.90;;;;;;5004717;28;20022;-60
2021/11/13 01:23:33;;;;;;;29.80;20.65;;;9.30;99.90;;;;;;5010942;28;20386;-59
2021/11/13 01:26:00;;;;;;;30.25;21.13;;;9.30;99.90;;;;;;4993598;28;20112;-60
2021/11/13 01:28:25;;;;;;;27.25;20.38;;;9.30;99.90;;;;;;5010656;28;20076;-60
2021/11/13 01:30:51;;;;;;;30.02;21.17;;;9.40;99.90;;;;;;4993202;28;20026;-60
2021/11/13 01:33:16;;;;;;;30.65;22.55;;;9.40;99.90;;;;;;4993118;28;20130;-60
2021/11/13 01:35:42;;;;;;;33.17;22.90;;;9.40;99.90;;;;;;5010850;28;20430;-60
2021/11/13 01:38:07;;;;;;;30.30;22.52;;;9.40;99.90;;;;;;5010330;28;20033;-60
2021/11/13 01:40:34;;;;;;;31.73;22.15;;;9.30;99.90;;;;;;4993280;28;20033;-61
2021/11/13 01:43:00;;;;;;;31.40;21.95;;;9.30;99.90;;;;;;5010725;28;20041;-60
2021/11/13 01:45:26;;;;;;;29.98;21.38;;;9.30;99.90;;;;;;4992871;28;20026;-60
2021/11/13 01:47:53;;;;;;;25.83;19.40;;;9.30;99.90;;;;;;5010760;28;20048;-60
2021/11/13 01:50:22;;;;;;;26.98;20.38;;;9.30;99.90;;;;;;5010786;28;20113;-60
2021/11/13 01:52:49;;;;;;;28.52;21.45;;;9.40;99.90;;;;;;4991852;28;20142;-60
2021/11/13 01:55:16;;;;;;;28.50;21.05;;;9.30;99.90;;;;;;4992858;28;21349;-60
2021/11/13 01:57:46;;;;;;;28.80;21.83;;;9.40;99.90;;;;;;5010736;28;20048;-60
2021/11/13 02:00:16;;;;;;;30.67;20.15;;;9.30;99.90;;;;;;5009892;28;20022;-60
2021/11/13 02:02:41;;;;;;;32.28;23.15;;;9.30;99.90;;;;;;4992477;28;20030;-60
2021/11/13 02:05:07;;;;;;;33.88;23.38;;;9.30;99.90;;;;;;5004488;28;20034;-60
2021/11/13 02:07:33;;;;;;;32.40;22.15;;;9.30;99.90;;;;;;4975553;28;20049;-60
2021/11/13 02:09:58;;;;;;;32.05;23.50;;;9.30;99.90;;;;;;5010527;28;20030;-60
2021/11/13 02:12:24;;;;;;;32.28;23.80;;;9.30;99.90;;;;;;5010251;28;20048;-60
2021/11/13 02:14:49;;;;;;;28.38;21.50;;;9.40;99.90;;;;;;4991757;28;20426;-60
2021/11/13 02:17:15;;;;;;;29.38;22.65;;;9.30;99.90;;;;;;5010373;28;20459;-60
2021/11/13 02:19:40;;;;;;;30.88;22.42;;;9.30;99.90;;;;;;5009603;28;20493;-60
2021/11/13 02:22:06;;;;;;;33.08;22.88;;;9.40;99.90;;;;;;5010140;28;20022;-60
2021/11/13 02:24:32;;;;;;;32.63;22.92;;;9.40;99.90;;;;;;5010474;28;20444;-60
2021/11/13 02:26:57;;;;;;;32.33;22.73;;;9.40;99.90;;;;;;5010252;28;20042;-60
2021/11/13 02:29:23;;;;;;;30.75;23.83;;;9.40;99.90;;;;;;5010443;28;20113;-60
2021/11/13 02:31:49;;;;;;;32.30;23.25;;;9.40;99.90;;;;;;5001634;28;20091;-60
2021/11/13 02:34:16;;;;;;;29.20;22.15;;;9.50;99.90;;;;;;5010516;28;20481;-60
2021/11/13 02:36:42;;;;;;;29.85;22.27;;;9.50;99.90;;;;;;5010192;28;20486;-60
2021/11/13 02:39:10;;;;;;;31.38;22.33;;;9.50;99.90;;;;;;5009802;28;20120;-60
2021/11/13 02:41:37;;;;;;;28.23;21.38;;;9.50;99.90;;;;;;4990974;28;20061;-60
2021/11/13 02:44:04;;;;;;;30.70;22.20;;;9.50;99.90;;;;;;4995066;28;20026;-60
2021/11/13 02:46:29;;;;;;;28.92;22.00;;;9.50;99.90;;;;;;5013071;28;20022;-60
2021/11/13 02:48:55;;;;;;;32.65;23.38;;;9.60;99.90;;;;;;5006880;28;20056;-60
2021/11/13 02:51:21;;;;;;;33.22;22.23;;;9.60;99.90;;;;;;5013851;28;20026;-60
2021/11/13 02:53:49;;;;;;;32.75;22.73;;;9.60;99.90;;;;;;5013627;28;20116;-60
2021/11/13 02:56:15;;;;;;;30.90;22.40;;;9.60;99.90;;;;;;5014123;28;20079;-60
2021/11/13 02:58:41;;;;;;;30.50;22.52;;;9.60;99.90;;;;;;5006495;28;20119;-60
2021/11/13 03:01:17;;;;;;;36.90;23.58;;;9.60;99.90;;;;;;5013373;28;20240;-60
2021/11/13 03:03:42;;;;;;;30.38;23.40;;;9.70;99.90;;;;;;5013119;28;20026;-60
2021/11/13 03:06:11;;;;;;;31.95;22.95;;;9.70;99.90;;;;;;5013139;28;20153;-60
2021/11/13 03:08:37;;;;;;;33.22;23.33;;;9.70;99.90;;;;;;4978114;28;20031;-60
2021/11/13 03:11:06;;;;;;;32.10;23.38;;;9.70;99.90;;;;;;4998045;28;20029;-60
2021/11/13 03:13:33;;;;;;;36.37;24.63;;;9.80;99.90;;;;;;5013260;28;20402;-60
2021/11/13 03:16:00;;;;;;;35.40;24.15;;;9.80;99.90;;;;;;5012164;28;20385;-60
2021/11/13 03:18:26;;;;;;;34.67;23.67;;;9.80;99.90;;;;;;5012882;28;20022;-60
2021/11/13 03:20:52;;;;;;;33.67;24.52;;;9.80;99.90;;;;;;5013167;28;20026;-60
2021/11/13 03:23:18;;;;;;;36.17;23.48;;;9.80;99.90;;;;;;4995621;28;20529;-60
2021/11/13 03:25:52;;;;;;;35.60;24.05;;;9.90;99.90;;;;;;4995289;28;20565;-60
2021/11/13 03:28:21;;;;;;;37.30;24.35;;;9.90;99.90;;;;;;4994369;28;20037;-60
2021/11/13 03:30:47;;;;;;;31.88;22.90;;;9.90;99.90;;;;;;5005980;28;20022;-60
2021/11/13 03:33:13;;;;;;;33.25;21.63;;;9.90;99.90;;;;;;5013009;28;20030;-60
2021/11/13 03:35:38;;;;;;;29.13;20.30;;;9.90;99.90;;;;;;4995285;28;20041;-60
2021/11/13 03:38:14;;;;;;;33.53;23.25;;;9.90;99.90;;;;;;5012989;28;20040;-60
2021/11/13 03:40:42;;;;;;;31.92;22.02;;;9.90;99.90;;;;;;5011442;28;20085;-60
2021/11/13 03:43:08;;;;;;;28.85;21.77;;;10.00;99.90;;;;;;5012487;28;20132;-60
2021/11/13 03:45:35;;;;;;;30.17;22.50;;;10.00;99.90;;;;;;4995213;28;20460;-60
2021/11/13 03:48:01;;;;;;;29.33;20.73;;;10.00;99.90;;;;;;5005921;28;20049;-60
2021/11/13 03:50:26;;;;;;;28.33;21.80;;;10.00;99.90;;;;;;5012216;28;20045;-60
2021/11/13 03:52:53;;;;;;;28.52;21.17;;;10.00;99.90;;;;;;5005620;28;20072;-60
2021/11/13 03:55:20;;;;;;;33.30;21.48;;;10.00;99.90;;;;;;5012218;28;20457;-60
2021/11/13 03:57:46;;;;;;;26.70;19.80;;;10.00;99.90;;;;;;5012624;28;20041;-60
2021/11/13 04:00:12;;;;;;;29.63;21.00;;;10.00;99.90;;;;;;5012528;28;20117;-60
2021/11/13 04:02:40;;;;;;;25.48;19.73;;;10.10;99.90;;;;;;4994750;28;20069;-60
2021/11/13 04:05:06;;;;;;;25.35;19.73;;;10.10;99.90;;;;;;5012156;28;20104;-60
2021/11/13 04:07:32;;;;;;;27.40;19.33;;;10.10;99.90;;;;;;4993473;28;20380;-60
2021/11/13 04:09:58;;;;;;;24.50;17.90;;;10.10;99.90;;;;;;4994467;28;20478;-60
2021/11/13 04:12:23;;;;;;;25.92;19.38;;;10.10;99.90;;;;;;5012254;28;20034;-60
2021/11/13 04:14:50;;;;;;;23.35;18.00;;;10.10;99.90;;;;;;5010800;28;20054;-60
2021/11/13 04:17:15;;;;;;;25.38;18.50;;;10.10;99.90;;;;;;5012182;28;20038;-60
2021/11/13 04:19:41;;;;;;;25.58;19.05;;;10.10;99.90;;;;;;4994634;28;20029;-60
2021/11/13 04:22:07;;;;;;;20.83;17.80;;;10.20;99.90;;;;;;5011437;28;20083;-60
2021/11/13 04:24:33;;;;;;;23.02;17.90;;;10.10;99.90;;;;;;5011558;28;20022;-60
2021/11/13 04:26:59;;;;;;;24.98;18.95;;;10.10;99.90;;;;;;4994131;28;20021;-60
2021/11/13 04:29:24;;;;;;;22.38;17.98;;;10.20;99.90;;;;;;5011364;28;20489;-60
2021/11/13 04:31:50;;;;;;;23.38;19.55;;;10.20;99.90;;;;;;5011756;28;20033;-60
2021/11/13 04:34:24;;;;;;;23.65;18.25;;;10.20;99.90;;;;;;5011588;28;20112;-60
2021/11/13 04:36:55;;;;;;;23.67;19.23;;;10.20;99.90;;;;;;5010676;28;20022;-60
2021/11/13 04:39:25;;;;;;;23.45;18.95;;;10.20;99.90;;;;;;5011342;28;20026;-60
2021/11/13 04:41:52;;;;;;;22.90;19.17;;;10.20;99.90;;;;;;5011250;28;20117;-60
2021/11/13 04:44:18;;;;;;;25.55;19.73;;;10.20;99.90;;;;;;5011667;28;20104;-60
2021/11/13 04:46:43;;;;;;;23.15;18.02;;;10.20;99.90;;;;;;5011673;28;20475;-60
2021/11/13 04:49:09;;;;;;;22.35;17.48;;;10.20;99.90;;;;;;5011418;28;20030;-60
2021/11/13 04:51:35;;;;;;;25.40;19.67;;;10.30;99.90;;;;;;5011438;28;20033;-60
2021/11/13 04:54:00;;;;;;;22.73;16.70;;;10.30;99.90;;;;;;5011435;28;20089;-60
2021/11/13 04:56:26;;;;;;;19.48;16.38;;;10.20;99.90;;;;;;5011290;28;20478;-60
2021/11/13 04:58:52;;;;;;;19.92;16.73;;;10.20;99.90;;;;;;4993607;28;20028;-60
2021/11/13 05:01:17;;;;;;;21.88;16.75;;;10.20;99.90;;;;;;5011406;28;20478;-60
2021/11/13 05:03:43;;;;;;;19.60;15.80;;;10.20;99.90;;;;;;5011272;28;20037;-60
2021/11/13 05:06:08;;;;;;;22.95;17.85;;;10.30;99.90;;;;;;5004369;28;20042;-60
2021/11/13 05:08:34;;;;;;;20.35;15.73;;;10.30;99.90;;;;;;4991894;28;20031;-60
2021/11/13 05:10:59;;;;;;;21.30;16.25;;;10.20;99.90;;;;;;4991754;28;20026;-60
2021/11/13 05:13:25;;;;;;;20.00;17.35;;;10.20;99.90;;;;;;4973961;28;20074;-60
2021/11/13 05:15:50;;;;;;;19.30;15.68;;;10.20;99.90;;;;;;4991598;28;20054;-60
2021/11/13 05:18:16;;;;;;;20.30;16.48;;;10.20;99.90;;;;;;4991573;28;20486;-60
2021/11/13 05:20:42;;;;;;;19.60;16.20;;;10.20;99.90;;;;;;4991425;28;20078;-60
2021/11/13 05:23:07;;;;;;;18.65;15.20;;;10.20;99.90;;;;;;4973351;28;20054;-60
2021/11/13 05:25:33;;;;;;;19.35;16.08;;;10.20;99.90;;;;;;4991617;28;20038;-60
2021/11/13 05:27:59;;;;;;;17.52;15.40;;;10.20;99.90;;;;;;4991240;28;20030;-60
2021/11/13 05:30:27;;;;;;;18.27;15.73;;;10.30;99.90;;;;;;4970529;28;20025;-60
2021/11/13 05:32:54;;;;;;;19.08;16.58;;;10.30;99.90;;;;;;4991303;28;20042;-60
2021/11/13 05:35:20;;;;;;;20.38;16.15;;;10.20;99.90;;;;;;4991462;28;20495;-60
2021/11/13 05:37:47;;;;;;;20.42;16.17;;;10.20;99.90;;;;;;4990882;28;20121;-60
2021/11/13 05:40:13;;;;;;;19.23;15.38;;;10.20;99.90;;;;;;4991043;28;20033;-60
2021/11/13 05:42:41;;;;;;;21.02;16.70;;;10.20;99.90;;;;;;4991350;28;20398;-60
2021/11/13 05:45:08;;;;;;;18.00;15.23;;;10.30;99.90;;;;;;4991294;28;20022;-60
2021/11/13 05:47:34;;;;;;;19.08;15.75;;;10.30;99.90;;;;;;4991095;28;20053;-60
2021/11/13 05:50:00;;;;;;;20.92;16.23;;;10.30;99.90;;;;;;4989751;28;20061;-60
2021/11/13 05:52:26;;;;;;;20.80;15.93;;;10.30;99.90;;;;;;4990686;28;20512;-60
2021/11/13 05:54:52;;;;;;;19.27;15.77;;;10.30;99.90;;;;;;4991333;28;20030;-60
2021/11/13 05:57:17;;;;;;;18.85;15.85;;;10.30;99.90;;;;;;4991485;28;20046;-60
2021/11/13 05:59:43;;;;;;;16.55;13.80;;;10.30;99.90;;;;;;4991385;28;21464;-60
2021/11/13 06:02:08;;;;;;;18.00;15.10;;;10.30;99.90;;;;;;4990739;28;20462;-60
2021/11/13 06:04:34;;;;;;;21.52;16.75;;;10.30;99.90;;;;;;4990933;28;20031;-60
2021/11/13 06:06:59;;;;;;;19.00;15.68;;;10.40;99.90;;;;;;4990715;28;20046;-60
2021/11/13 06:09:26;;;;;;;18.05;14.85;;;10.30;99.90;;;;;;4990915;28;20035;-60
2021/11/13 06:11:52;;;;;;;18.25;15.13;;;10.40;99.90;;;;;;4991172;28;20101;-60
2021/11/13 06:14:17;;;;;;;17.30;13.45;;;10.40;99.90;;;;;;4990955;28;20157;-60
2021/11/13 06:16:43;;;;;;;16.55;14.10;;;10.40;99.90;;;;;;4991412;28;20026;-60
2021/11/13 06:19:09;;;;;;;18.75;15.00;;;10.40;99.90;;;;;;4994381;28;20062;-60
2021/11/13 06:21:35;;;;;;;19.38;15.90;;;10.40;99.90;;;;;;4995329;28;20042;-60
2021/11/13 06:24:46;;;;;;;16.55;14.68;;;10.40;99.90;;;;;;4995824;28;20026;-60
2021/11/13 06:27:11;;;;;;;18.98;15.80;;;10.40;99.90;;;;;;4995505;28;20019;-60
2021/11/13 06:29:37;;;;;;;17.98;15.30;;;10.40;99.90;;;;;;4994418;28;20039;-61
2021/11/13 06:32:03;;;;;;;18.52;15.57;;;10.40;99.90;;;;;;4996249;28;20031;-60
2021/11/13 06:34:29;;;;;;;16.70;14.88;;;10.40;99.90;;;;;;4978876;28;20074;-60
2021/11/13 06:36:54;;;;;;;17.67;14.88;;;10.40;99.90;;;;;;4978778;28;20081;-60
2021/11/13 06:39:20;;;;;;;16.40;14.60;;;10.40;99.90;;;;;;4995954;28;20030;-60
2021/11/13 06:41:45;;;;;;;17.55;14.90;;;10.40;99.90;;;;;;4978490;28;20080;-60
2021/11/13 06:44:11;;;;;;;19.95;17.02;;;10.30;99.90;;;;;;4977535;28;20034;-60
2021/11/13 06:46:36;;;;;;;19.13;15.85;;;10.30;99.90;;;;;;4977085;28;20129;-60
2021/11/13 06:49:02;;;;;;;17.67;15.05;;;10.30;99.90;;;;;;4978552;28;20096;-60
2021/11/13 06:51:28;;;;;;;19.00;15.35;;;10.30;99.90;;;;;;4961924;28;20026;-60
2021/11/13 07:05:09;;;;;;;18.35;15.38;;;10.30;99.90;;;;;;4896504;29;20115;-60
2021/11/13 07:07:35;;;;;;;19.95;16.83;;;10.30;99.90;;;;;;4893619;29;20192;-60
2021/11/13 07:10:09;;;;;;;18.95;15.93;;;10.30;99.90;;;;;;4944718;29;20118;-60
2021/11/13 07:12:35;;;;;;;21.30;17.48;;;10.30;99.90;;;;;;4984687;28;20043;-60
2021/11/13 07:15:02;;;;;;;20.45;17.70;;;10.30;99.90;;;;;;4995473;28;20030;-60
2021/11/13 07:17:27;;;;;;;21.65;17.38;;;10.30;99.90;;;;;;4995472;28;20045;-60
2021/11/13 07:19:53;;;;;;;20.48;17.13;;;10.30;99.90;;;;;;4995520;28;20034;-60
2021/11/13 07:22:18;;;;;;;20.10;16.65;;;10.30;99.90;;;;;;4993329;28;20105;-60
2021/11/13 07:24:44;;;;;;;20.98;17.75;;;10.40;99.90;;;;;;4994733;28;20022;-60
2021/11/13 07:27:11;;;;;;;21.58;17.75;;;10.40;99.90;;;;;;4986404;28;20391;-60
2021/11/13 07:32:21;;;;;;;24.27;17.92;;;10.40;99.90;;;;;;4983040;28;20158;-60
2021/11/13 07:34:46;;;;;;;20.13;17.50;;;10.40;99.90;;;;;;4989267;28;20125;-60
2021/11/13 07:37:12;;;;;;;19.17;16.65;;;10.40;99.90;;;;;;4982294;28;20117;-60
2021/11/13 07:39:38;;;;;;;21.20;18.10;;;10.40;99.90;;;;;;4984814;28;20508;-60
2021/11/13 07:42:04;;;;;;;19.85;17.27;;;10.40;99.90;;;;;;4986815;28;20546;-60
2021/11/13 07:44:31;;;;;;;23.70;18.52;;;10.40;99.90;;;;;;4982486;28;20110;-60
2021/11/13 07:47:41;;;;;;;19.63;17.15;;;10.50;99.90;;;;;;4985647;28;20529;-60
2021/11/13 07:50:20;;;;;;;;;;;10.60;99.90;;;;;;4992598;28;20498;-60
2021/11/13 07:53:09;;;;;;;21.77;16.73;;;10.50;99.90;;;;;;4984860;28;19955;-60
2021/11/13 07:55:36;;;;;;;20.67;16.52;;;10.60;99.90;;;;;;4982476;28;20027;-60
2021/11/13 07:58:01;;;;;;;18.95;16.33;;;10.60;99.90;;;;;;4984693;28;20034;-60
2021/11/13 08:07:17;;;;;;;19.27;16.25;;;10.70;99.90;;;;;;4923748;28;20038;-60
2021/11/13 08:09:43;;;;;;;22.63;17.50;;;10.70;99.90;;;;;;4990190;28;20030;-60
2021/11/13 08:12:09;;;;;;;19.58;16.77;;;10.70;99.90;;;;;;5009608;28;20022;-60
2021/11/13 08:14:34;;;;;;;21.20;17.38;;;10.80;99.90;;;;;;5011298;28;20041;-60
2021/11/13 08:17:00;;;;;;;23.33;17.88;;;10.80;99.90;;;;;;4994069;28;20033;-60
2021/11/13 08:19:25;;;;;;;22.58;18.98;;;10.90;99.90;;;;;;4994115;28;20025;-61
2021/11/13 08:21:51;;;;;;;21.48;18.50;;;10.90;99.90;;;;;;5011206;28;20108;-60
2021/11/13 08:24:19;;;;;;;22.75;18.85;;;10.90;99.90;;;;;;5011388;28;20100;-60
2021/11/13 08:26:45;;;;;;;22.80;19.17;;;11.00;99.90;;;;;;5011592;28;20017;-61
2021/11/13 08:29:11;;;;;;;21.35;18.65;;;11.00;99.90;;;;;;5011060;28;20537;-60
2021/11/13 08:31:37;;;;;;;23.17;18.83;;;11.00;99.90;;;;;;5011233;28;20022;-60
2021/11/13 08:34:03;;;;;;;22.15;17.77;;;11.00;99.90;;;;;;5009519;28;20467;-60
2021/11/13 08:36:28;;;;;;;22.38;19.48;;;11.10;99.90;;;;;;5011912;28;20040;-60
2021/11/13 08:38:54;;;;;;;25.25;19.92;;;11.10;99.90;;;;;;5013815;28;20101;-60
2021/11/13 08:41:20;;;;;;;23.70;20.65;;;11.10;99.90;;;;;;5009747;28;20041;-60
2021/11/13 08:43:48;;;;;;;23.30;19.55;;;11.20;99.90;;;;;;5011659;28;20117;-60
2021/11/13 08:46:13;;;;;;;23.88;20.10;;;11.20;99.90;;;;;;5013287;28;20134;-60
2021/11/13 08:48:39;;;;;;;26.45;19.85;;;11.20;99.90;;;;;;4995544;28;20149;-60
2021/11/13 08:51:07;;;;;;;22.73;19.10;;;11.20;99.90;;;;;;4995587;28;20057;-60
2021/11/13 08:53:33;;;;;;;23.23;18.55;;;11.20;99.90;;;;;;4995380;28;20363;-60
2021/11/13 08:55:59;;;;;;;23.48;18.58;;;11.30;99.90;;;;;;5013177;28;20045;-60
2021/11/13 08:58:24;;;;;;;22.67;17.67;;;11.30;99.90;;;;;;5012928;28;20033;-60
2021/11/13 09:01:00;;;;;;;23.48;18.08;;;11.40;99.90;;;;;;5013071;28;20045;-60
2021/11/13 09:03:35;;;;;;;20.13;16.77;;;11.50;99.90;;;;;;4995073;28;20542;-60
2021/11/13 09:06:03;;;;;;;22.40;17.23;;;11.60;99.90;;;;;;5012906;28;20502;-60
2021/11/13 09:08:29;;;;;;;26.25;18.02;;;11.60;99.90;;;;;;5012936;28;20026;-60
2021/11/13 09:10:56;;;;;;;20.63;17.27;;;11.70;99.90;;;;;;5012997;28;20076;-60
2021/11/13 09:13:25;;;;;;;20.00;16.38;;;11.70;99.90;;;;;;5012316;28;20033;-60
2021/11/13 09:16:26;;;;;;;23.58;17.98;;;11.80;99.90;;;;;;5012261;28;20381;-60
2021/11/13 09:19:00;;;;;;;22.67;17.77;;;11.80;99.90;;;;;;5012271;28;20117;-60
2021/11/13 09:25:13;;;;;;;19.45;15.93;;;11.80;99.90;;;;;;4983657;28;20045;-60
2021/11/13 09:27:42;;;;;;;21.45;16.52;;;11.80;99.90;;;;;;5009927;28;20401;-60
2021/11/13 09:30:12;;;;;;;18.85;15.00;;;11.90;99.90;;;;;;5012441;28;20583;-60
2021/11/13 09:32:38;;;;;;;21.08;15.32;;;11.90;99.90;;;;;;5012234;28;20521;-60
2021/11/13 09:35:04;;;;;;;22.00;17.27;;;11.90;99.90;;;;;;5012569;28;20022;-60
2021/11/13 09:37:32;;;;;;;21.92;16.70;;;12.00;99.90;;;;;;5012243;28;20025;-60
2021/11/13 09:39:58;;;;;;;21.42;16.35;;;12.00;99.90;;;;;;5012580;28;20048;-60
2021/11/13 09:45:43;;;;;;;24.92;18.17;;;12.10;99.90;;;;;;5003648;28;20026;-60
2021/11/13 09:48:24;;;;;;;;;;;;;;;;;;;;;
2021/11/13 09:50:51;;;;;;;20.98;16.25;;;12.10;99.90;;;;;;5009025;28;20040;-60
2021/11/13 09:56:47;;;;;;;18.02;15.57;;;12.20;99.90;;;;;;4951490;29;20042;-60
2021/11/13 09:59:13;;;;;;;17.13;13.68;;;12.10;99.90;;;;;;4950362;29;20040;-60
2021/11/13 10:01:38;;;;;;;17.08;14.57;;;12.20;99.90;;;;;;4970039;28;20048;-60
2021/11/13 10:04:05;;;;;;;16.98;14.52;;;12.30;99.90;;;;;;5006248;28;20069;-60
2021/11/13 10:06:31;;;;;;;17.52;14.23;;;12.30;99.90;;;;;;4993684;28;20394;-60
2021/11/13 10:08:57;;;;;;;17.90;14.80;;;12.40;99.90;;;;;;4994686;28;20029;-60
2021/11/13 10:11:25;;;;;;;19.33;14.68;;;12.40;99.90;;;;;;5012200;28;20022;-60
2021/11/13 10:13:53;;;;;;;15.80;14.13;;;12.40;99.90;;;;;;5007862;28;20026;-60
2021/11/13 10:16:59;;;;;;;;;;;;;;;;;;;;;
2021/11/13 10:19:26;;;;;;;18.35;13.45;;;12.50;99.90;;;;;;4997456;28;20029;-60
2021/11/13 10:21:56;;;;;;;19.10;13.70;;;12.50;99.90;;;;;;5012072;28;20029;-60
2021/11/13 10:24:31;;;;;;;16.00;12.55;;;12.50;99.90;;;;;;5012244;28;20026;-61
2021/11/13 10:27:56;;;;;;;15.98;12.60;;;12.60;99.90;;;;;;5011759;28;20040;-60
2021/11/13 10:30:22;;;;;;;15.25;11.77;;;12.60;99.90;;;;;;5011216;28;20111;-60
2021/11/13 10:32:57;;;;;;;12.55;11.13;;;12.60;99.90;;;;;;4994311;28;20034;-60
2021/11/13 10:35:47;;;;;;;14.98;12.65;;;12.70;99.90;;;;;;4994246;28;20474;-60
2021/11/13 10:38:19;;;;;;;14.55;12.75;;;12.80;99.90;;;;;;5008371;28;20491;-60
2021/11/13 10:40:53;;;;;;;15.43;12.38;;;12.90;99.90;;;;;;5011833;28;20041;-60
2021/11/13 10:43:19;;;;;;;12.95;10.60;;;13.10;99.90;;;;;;5009639;28;20076;-60
2021/11/13 10:46:07;;;;;;;12.65;10.80;;;13.10;99.90;;;;;;5011205;28;20124;-61
2021/11/13 10:48:38;;;;;;;13.15;9.93;;;13.20;99.90;;;;;;5011747;28;20025;-60
2021/11/13 10:51:07;;;;;;;12.20;9.93;;;13.30;99.90;;;;;;5011715;28;20038;-61
2021/11/13 10:53:34;;;;;;;14.68;10.15;;;13.20;99.90;;;;;;4993496;28;20033;-61
2021/11/13 10:56:14;;;;;;;11.95;9.55;;;13.20;99.90;;;;;;5009907;28;20084;-61
2021/11/13 10:58:43;;;;;;;12.55;9.68;;;13.30;99.90;;;;;;5011650;28;20030;-61
2021/11/13 11:01:23;;;;;;;9.95;8.80;;;13.30;99.90;;;;;;5011651;28;20026;-61
2021/11/13 11:03:53;;;;;;;12.90;9.50;;;13.40;99.90;;;;;;5006142;28;20087;-61
2021/11/13 11:06:30;;;;;;;13.23;9.65;;;13.50;99.90;;;;;;5011471;28;20128;-61
2021/11/13 11:08:56;;;;;;;10.40;8.68;;;13.50;99.90;;;;;;5015007;28;20375;-61
2021/11/13 11:11:41;;;;;;;11.32;8.60;;;13.50;99.90;;;;;;5014829;28;20029;-61
2021/11/13 11:14:10;;;;;;;9.02;7.38;;;13.70;99.90;;;;;;5014206;28;20042;-61
2021/11/13 11:16:38;;;;;;;7.75;6.30;;;13.80;99.90;;;;;;5014164;28;20431;-61
2021/11/13 11:19:05;;;;;;;6.93;5.55;;;13.80;99.90;;;;;;5014615;28;20042;-61
2021/11/13 11:21:52;;;;;;;7.30;4.72;;;13.80;99.90;;;;;;5014767;28;20156;-61
2021/11/13 11:24:22;;;;;;;8.35;4.68;;;14.00;99.90;;;;;;4996465;28;20417;-61
2021/11/13 11:26:54;;;;;;;4.95;4.35;;;14.30;99.90;;;;;;5014936;28;20022;-61
2021/11/13 11:29:20;;;;;;;5.93;4.88;;;14.50;99.90;;;;;;5014163;28;20052;-61
2021/11/13 11:31:52;;;;;;;5.43;4.47;;;14.50;99.90;;;;;;5012010;28;20105;-61
2021/11/13 11:34:34;;;;;;;7.35;4.93;;;14.50;99.90;;;;;;5013833;28;20022;-61
2021/11/13 11:37:12;;;;;;;4.50;4.07;;;14.50;99.90;;;;;;5014416;28;20018;-61
2021/11/13 11:39:57;;;;;;;;;;;;;;;;;;;;;
2021/11/13 11:42:24;;;;;;;7.75;4.68;;;14.50;99.90;;;;;;5011874;28;20036;-61
2021/11/13 11:44:59;;;;;;;5.93;4.75;;;14.50;99.90;;;;;;5012640;28;20018;-61
2021/11/13 11:47:26;;;;;;;5.55;4.85;;;14.50;99.90;;;;;;5012993;28;20017;-61
2021/11/13 11:49:57;;;;;;;7.10;4.60;;;14.50;99.90;;;;;;5006210;28;20108;-61
2021/11/13 11:55:25;;;;;;;5.15;3.88;;;14.50;99.90;;;;;;4992892;28;20970;-61
2021/11/13 11:58:00;;;;;;;4.32;3.90;;;14.50;99.90;;;;;;4987049;28;20037;-61
2021/11/13 12:00:31;;;;;;;5.35;4.38;;;14.50;99.90;;;;;;5011108;28;20034;-61
2021/11/13 12:02:58;;;;;;;5.47;4.28;;;14.50;99.90;;;;;;5012887;28;20057;-61
2021/11/13 12:06:33;;;;;;;5.20;3.92;;;14.50;99.90;;;;;;5011080;28;20021;-61
2021/11/13 12:08:34;;;;;;;8.20;5.05;;;14.50;99.90;;;;;;4996362;28;20030;-61
2021/11/13 12:11:22;;;;;;;5.68;5.07;;;14.50;99.90;;;;;;5010179;28;20022;-61
2021/11/13 12:13:48;;;;;;;6.15;4.40;;;14.60;99.90;;;;;;4992054;28;20369;-61
2021/11/13 12:16:22;;;;;;;5.50;4.25;;;14.50;99.90;;;;;;5011650;28;20030;-61
2021/11/13 12:18:48;;;;;;;4.25;3.85;;;14.60;99.90;;;;;;5011935;28;20026;-61
2021/11/13 12:21:15;;;;;;;4.97;3.88;;;14.60;99.90;;;;;;5013497;28;20037;-61
2021/11/13 12:23:44;;;;;;;6.85;4.38;;;14.50;99.90;;;;;;5011832;28;20116;-61
2021/11/13 12:26:20;;;;;;;7.25;4.18;;;14.50;99.90;;;;;;5003443;28;21382;-61
2021/11/13 12:28:45;;;;;;;4.97;4.47;;;14.50;99.90;;;;;;4973869;28;20037;-61
2021/11/13 12:31:29;;;;;;;4.78;4.07;;;14.50;99.90;;;;;;4980055;28;20030;-61
2021/11/13 12:34:01;;;;;;;4.68;3.70;;;14.50;99.90;;;;;;5012832;28;20462;-61
2021/11/13 12:36:56;;;;;;;4.38;3.22;;;14.50;99.90;;;;;;5012696;28;20030;-61
2021/11/13 12:40:18;;;;;;;;;;;;;;;;;;;;;
2021/11/13 12:46:55;;;;;;;7.72;3.78;;;14.50;99.90;;;;;;4892655;29;20032;-61
2021/11/13 12:49:29;;;;;;;6.97;4.43;;;14.50;99.90;;;;;;4897667;29;20020;-61
2021/11/13 12:51:55;;;;;;;7.22;4.20;;;14.60;99.90;;;;;;5007715;28;20072;-61
2021/11/13 12:54:24;;;;;;;4.60;3.72;;;14.50;99.90;;;;;;5009358;28;20467;-61
2021/11/13 12:57:06;;;;;;;4.10;3.40;;;14.60;99.90;;;;;;5010751;28;20022;-61
2021/11/13 12:59:41;;;;;;;3.35;2.30;;;14.60;99.90;;;;;;5011045;28;20385;-61
2021/11/13 13:02:10;;;;;;;2.35;1.98;;;14.60;99.90;;;;;;5009955;28;20072;-61
2021/11/13 13:04:38;;;;;;;3.08;2.08;;;14.60;99.90;;;;;;5010382;28;20494;-61
2021/11/13 13:07:05;;;;;;;2.40;1.98;;;14.50;99.90;;;;;;5011549;28;20046;-61
2021/11/13 13:09:33;;;;;;;2.65;1.85;;;14.50;99.90;;;;;;5019538;28;20030;-61
2021/11/13 13:12:02;;;;;;;2.95;1.75;;;14.50;99.90;;;;;;5014278;28;20033;-61
2021/11/13 13:14:49;;;;;;;4.28;1.80;;;14.50;99.90;;;;;;5012911;28;20037;-61
2021/11/13 13:17:23;;;;;;;2.95;1.98;;;14.50;99.90;;;;;;5004754;28;20080;-61
2021/11/13 13:19:49;;;;;;;2.10;1.67;;;14.50;99.90;;;;;;5013663;28;20022;-61
2021/11/13 13:22:15;;;;;;;1.80;1.30;;;14.50;99.90;;;;;;5011431;28;20025;-61
2021/11/13 13:25:03;;;;;;;2.47;1.52;;;14.50;99.90;;;;;;5010680;28;20038;-61